CheckWX is a tool to help pilots better visualize weather data.  It is not intended as a substitute for an official pre-flight weather briefing.

20:15:49 UTC

KMDJ METAR
Mississippi Canyon
Mississippi Canyon, Louisiana, USA
Current

21 mins ago

KMDJ 231955Z AUTO 11009KT 10SM CLR 22/17 A3011 RMK A01
Observed
Apr-23 @ 19:55 UTC
Wind
  • 110° at 9 KTS
Visibility
10 SM
Flight Rules
VFR
Cloud Levels
  • Clear skies
Temperature
22°C / 72°F
Dewpoint
17°C / 63°F
Humidity
73%
Altimeter
30.11" Hg
Pressure
1019.62 hPa
Previous

41 mins ago

KMDJ 231935Z AUTO 11010KT 10SM CLR 22/17 A3012 RMK A01
Observed
Apr-23 @ 19:35 UTC
Wind
  • 110° at 10 KTS
Visibility
10 SM
Flight Rules
VFR
Cloud Levels
  • Clear skies
Temperature
22°C / 72°F
Dewpoint
17°C / 63°F
Humidity
73%
Altimeter
30.12" Hg
Pressure
1020.02 hPa
Previous

1 hour ago

KMDJ 231915Z AUTO 11011KT 10SM CLR 22/17 A3012 RMK A01
Observed
Apr-23 @ 19:15 UTC
Wind
  • 110° at 11 KTS
Visibility
10 SM
Flight Rules
VFR
Cloud Levels
  • Clear skies
Temperature
22°C / 72°F
Dewpoint
17°C / 63°F
Humidity
73%
Altimeter
30.12" Hg
Pressure
1020.02 hPa